Time;durP1;ratioP1;P1;durP2;ratioP2;P2;SDS_P1;SDS_P2;PMS_P1;PMS_P2;Temp;Humidity;BMP_temperature;BMP_pressure;BME280_temperature;BME280_humidity;BME280_pressure;Samples;Min_cycle;Max_cycle;Signal;HPM_P1;HPM_P2
2021/01/31 00:00:47;;;;;;;15.82;5.55;;;0.90;99.90;;;;;;10229826;28;20506;-64
2021/01/31 00:05:50;;;;;;;13.38;6.45;;;0.80;99.90;;;;;;10241957;28;20104;-64
2021/01/31 00:10:52;;;;;;;14.57;5.80;;;0.80;99.90;;;;;;10246235;28;20051;-65
2021/01/31 00:15:54;;;;;;;15.60;7.30;;;0.80;99.90;;;;;;10238245;28;20071;-65
2021/01/31 00:20:58;;;;;;;14.50;6.20;;;0.70;99.90;;;;;;10231791;28;21290;-64
2021/01/31 00:25:59;;;;;;;13.45;6.80;;;0.70;99.90;;;;;;10245393;28;20051;-64
2021/01/31 00:31:00;;;;;;;17.55;7.50;;;0.80;99.90;;;;;;10241663;28;20066;-64
2021/01/31 00:36:02;;;;;;;15.60;6.45;;;0.70;99.90;;;;;;10246659;28;20060;-64
2021/01/31 00:41:03;;;;;;;16.13;8.02;;;0.70;99.90;;;;;;10217224;28;20471;-64
2021/01/31 00:46:04;;;;;;;20.48;8.73;;;0.70;99.90;;;;;;10241336;28;20055;-64
2021/01/31 00:51:05;;;;;;;16.45;8.18;;;0.70;99.90;;;;;;10251778;28;20062;-63
2021/01/31 00:56:06;;;;;;;19.17;8.10;;;0.70;99.90;;;;;;10228481;28;20059;-64
2021/01/31 01:01:07;;;;;;;19.02;8.35;;;0.70;99.90;;;;;;10226463;28;20122;-64
2021/01/31 01:06:09;;;;;;;16.25;7.63;;;0.70;99.90;;;;;;10233278;28;20161;-64
2021/01/31 01:11:11;;;;;;;20.08;8.73;;;0.60;99.90;;;;;;10221181;28;20039;-64
2021/01/31 01:16:12;;;;;;;22.30;9.18;;;0.70;99.90;;;;;;10234312;28;20067;-64
2021/01/31 01:21:15;;;;;;;17.35;8.25;;;0.60;99.90;;;;;;10233141;28;20050;-64
2021/01/31 01:26:17;;;;;;;20.25;8.00;;;0.60;99.90;;;;;;10231472;28;20079;-64
2021/01/31 01:31:18;;;;;;;21.13;9.13;;;0.60;99.90;;;;;;10230773;28;20051;-64
2021/01/31 01:36:20;;;;;;;21.60;7.88;;;0.60;99.90;;;;;;10234574;28;20047;-64
2021/01/31 01:41:21;;;;;;;20.05;9.02;;;0.60;99.90;;;;;;10220950;28;20409;-64
2021/01/31 01:46:30;;;;;;;22.25;9.32;;;0.50;99.90;;;;;;10222667;28;20454;-64
2021/01/31 01:51:42;;;;;;;20.77;9.20;;;0.60;99.90;;;;;;10221785;28;20114;-64
2021/01/31 01:56:48;;;;;;;19.88;8.93;;;0.50;99.90;;;;;;10225519;28;20125;-64
2021/01/31 02:02:14;;;;;;;21.30;9.93;;;0.60;99.90;;;;;;10222101;28;20043;-64
2021/01/31 02:07:17;;;;;;;20.02;9.27;;;0.50;99.90;;;;;;10222950;28;20051;-64
2021/01/31 02:12:22;;;;;;;17.50;8.43;;;0.50;99.90;;;;;;10220124;28;20043;-64
2021/01/31 02:17:52;;;;;;;19.90;8.55;;;0.50;99.90;;;;;;10226883;28;20046;-64
2021/01/31 02:23:15;;;;;;;21.45;9.65;;;0.50;99.90;;;;;;10182888;28;20106;-65
2021/01/31 02:28:30;;;;;;;19.35;9.13;;;0.50;99.90;;;;;;10217903;28;20610;-64
2021/01/31 02:33:48;;;;;;;19.42;8.57;;;0.50;99.90;;;;;;10212633;28;20486;-67
2021/01/31 02:38:56;;;;;;;21.52;9.15;;;0.50;99.90;;;;;;10210584;28;20043;-66
2021/01/31 02:44:01;;;;;;;21.58;8.73;;;0.40;99.90;;;;;;10220785;28;20058;-66
2021/01/31 02:49:21;;;;;;;21.08;8.70;;;0.50;99.90;;;;;;10220216;28;20055;-66
2021/01/31 02:54:41;;;;;;;21.15;9.10;;;0.40;99.90;;;;;;10136034;28;20054;-66
2021/01/31 02:59:57;;;;;;;19.48;9.02;;;0.40;99.90;;;;;;10224288;28;20039;-66
2021/01/31 03:05:11;;;;;;;16.95;8.25;;;0.40;99.90;;;;;;10185041;28;20065;-66
2021/01/31 03:10:35;;;;;;;19.67;9.10;;;0.40;99.90;;;;;;10220658;28;20109;-66
2021/01/31 03:15:43;;;;;;;20.40;7.95;;;0.30;99.90;;;;;;10221143;28;20051;-67
2021/01/31 03:20:55;;;;;;;18.17;8.38;;;0.30;99.90;;;;;;10219911;28;20059;-66
2021/01/31 03:26:01;;;;;;;20.50;9.40;;;0.30;99.90;;;;;;10206411;28;20047;-67
2021/01/31 03:31:05;;;;;;;15.48;7.50;;;0.20;99.90;;;;;;10214981;28;20110;-67
2021/01/31 03:36:06;;;;;;;18.65;7.90;;;0.20;99.90;;;;;;10222017;28;20951;-70
2021/01/31 03:41:12;;;;;;;15.55;7.20;;;0.10;99.90;;;;;;10221902;28;20067;-66
2021/01/31 03:46:35;;;;;;;19.23;7.00;;;0.10;99.90;;;;;;10233729;28;20050;-66
2021/01/31 03:51:36;;;;;;;17.20;6.40;;;0.10;99.90;;;;;;10215767;28;20923;-67
2021/01/31 03:56:47;;;;;;;16.83;7.97;;;0.10;99.90;;;;;;10224043;28;20051;-66
2021/01/31 04:01:50;;;;;;;16.80;6.63;;;0.00;99.90;;;;;;10216714;28;20478;-66
2021/01/31 04:06:55;;;;;;;15.60;6.80;;;0.10;99.90;;;;;;10221989;28;20054;-66
2021/01/31 04:12:03;;;;;;;20.25;7.32;;;0.00;99.90;;;;;;10236130;28;20118;-66
2021/01/31 04:17:05;;;;;;;15.95;6.20;;;0.00;99.90;;;;;;10234754;28;20062;-67
2021/01/31 04:22:06;;;;;;;14.75;6.43;;;0.00;99.90;;;;;;10221068;28;20145;-66
2021/01/31 04:27:08;;;;;;;15.90;7.15;;;0.00;99.90;;;;;;10222688;28;20055;-66
2021/01/31 04:32:11;;;;;;;16.20;6.40;;;0.00;99.90;;;;;;10218178;28;20177;-66
2021/01/31 04:37:12;;;;;;;16.67;6.10;;;0.00;99.90;;;;;;10239790;28;20475;-66
2021/01/31 04:42:17;;;;;;;15.90;6.05;;;-0.10;99.90;;;;;;10217258;28;20055;-66
2021/01/31 04:47:25;;;;;;;14.05;6.18;;;-0.10;99.90;;;;;;10220589;28;20730;-66
2021/01/31 04:52:53;;;;;;;15.32;6.82;;;-0.10;99.90;;;;;;10214462;28;20648;-66
2021/01/31 04:58:15;;;;;;;15.40;6.22;;;0.00;99.90;;;;;;10177237;28;20043;-67
2021/01/31 05:03:17;;;;;;;14.88;6.43;;;-0.10;99.90;;;;;;10220647;28;20061;-66
2021/01/31 05:08:22;;;;;;;16.45;7.20;;;-0.10;99.90;;;;;;10225055;28;20059;-66
2021/01/31 05:13:38;;;;;;;13.05;6.03;;;-0.10;99.90;;;;;;10239638;28;20046;-66
2021/01/31 05:18:45;;;;;;;15.30;5.90;;;-0.10;99.90;;;;;;10225972;28;20078;-67
2021/01/31 05:23:56;;;;;;;12.73;5.57;;;-0.10;99.90;;;;;;10226005;28;20047;-66
2021/01/31 05:29:03;;;;;;;13.25;6.30;;;-0.10;99.90;;;;;;10222732;28;20043;-66
2021/01/31 05:34:05;;;;;;;15.13;5.68;;;-0.20;99.90;;;;;;10225996;28;20056;-66
2021/01/31 05:39:07;;;;;;;15.23;6.15;;;-0.20;99.90;;;;;;10218239;28;20047;-66
2021/01/31 05:44:14;;;;;;;12.05;5.93;;;-0.20;99.90;;;;;;10224621;28;20055;-66
2021/01/31 05:49:34;;;;;;;12.40;5.70;;;-0.20;99.90;;;;;;10216384;28;20537;-66
2021/01/31 05:54:37;;;;;;;18.02;5.95;;;-0.20;99.90;;;;;;10230782;28;20055;-66
2021/01/31 05:59:41;;;;;;;11.20;5.53;;;-0.20;99.90;;;;;;10228483;28;20372;-66
2021/01/31 06:04:42;;;;;;;17.20;6.63;;;-0.20;99.90;;;;;;10223083;28;20059;-66
2021/01/31 06:09:49;;;;;;;13.02;5.55;;;-0.30;99.90;;;;;;10221657;28;20058;-66
2021/01/31 06:15:06;;;;;;;9.13;5.13;;;-0.20;99.90;;;;;;10245959;28;20536;-66
2021/01/31 06:20:14;;;;;;;11.98;5.55;;;-0.20;99.90;;;;;;10246913;28;20059;-66
2021/01/31 06:25:27;;;;;;;12.15;5.65;;;-0.20;99.90;;;;;;10222399;28;20066;-66
2021/01/31 06:30:32;;;;;;;15.02;6.50;;;-0.20;99.90;;;;;;10221232;28;20054;-66
2021/01/31 06:35:34;;;;;;;15.05;6.25;;;-0.20;99.90;;;;;;10218315;28;20054;-67
2021/01/31 06:41:14;;;;;;;12.73;6.00;;;-0.20;99.90;;;;;;10235923;28;20565;-66
2021/01/31 06:46:35;;;;;;;12.63;5.72;;;-0.30;99.90;;;;;;10120473;28;20486;-66
2021/01/31 06:51:58;;;;;;;12.52;6.55;;;-0.30;99.90;;;;;;10222689;28;20065;-67
2021/01/31 06:57:24;;;;;;;12.70;6.60;;;-0.30;99.90;;;;;;10177391;28;20744;-66
2021/01/31 07:02:59;;;;;;;13.82;5.03;;;-0.20;99.90;;;;;;10151423;28;20091;-61
2021/01/31 07:08:33;;;;;;;14.55;5.32;;;-0.20;99.90;;;;;;10165764;28;20059;-61
2021/01/31 07:13:53;;;;;;;13.30;5.00;;;-0.20;99.90;;;;;;10189484;28;20051;-61
2021/01/31 07:19:02;;;;;;;12.05;5.72;;;-0.20;99.90;;;;;;10168354;28;20082;-61
2021/01/31 07:24:09;;;;;;;11.20;5.43;;;-0.20;99.90;;;;;;10216434;28;20047;-61
2021/01/31 07:29:17;;;;;;;11.05;4.47;;;-0.20;99.90;;;;;;10221108;28;20051;-62
2021/01/31 07:34:36;;;;;;;11.80;5.25;;;-0.10;99.90;;;;;;10215827;28;20050;-61
2021/01/31 07:40:04;;;;;;;12.43;5.70;;;-0.10;99.90;;;;;;10218147;28;20058;-62
2021/01/31 07:45:12;;;;;;;12.02;4.78;;;-0.10;99.90;;;;;;10179487;28;20121;-62
2021/01/31 07:50:36;;;;;;;11.85;5.78;;;-0.10;99.90;;;;;;10215818;28;20062;-61
2021/01/31 07:55:43;;;;;;;11.90;5.78;;;-0.10;99.90;;;;;;10216344;28;20050;-62
2021/01/31 08:00:46;;;;;;;10.07;5.15;;;0.00;99.90;;;;;;10227044;28;20625;-61
2021/01/31 08:05:47;;;;;;;11.05;4.78;;;0.00;99.90;;;;;;10220976;28;20055;-61
2021/01/31 08:10:50;;;;;;;10.57;4.22;;;0.10;99.90;;;;;;10233074;28;20494;-61
2021/01/31 08:15:51;;;;;;;15.68;5.28;;;0.20;99.90;;;;;;10208530;28;20051;-61
2021/01/31 08:20:54;;;;;;;11.63;5.38;;;0.30;99.90;;;;;;10222842;28;20055;-62
2021/01/31 08:25:57;;;;;;;12.57;5.90;;;0.30;99.90;;;;;;10222307;28;20498;-61
2021/01/31 08:31:01;;;;;;;15.27;5.15;;;0.30;99.90;;;;;;10217733;28;20052;-61
2021/01/31 08:36:04;;;;;;;13.73;5.85;;;0.30;99.90;;;;;;10224466;28;20557;-61
2021/01/31 08:41:05;;;;;;;13.27;4.85;;;0.40;99.90;;;;;;10206411;28;20059;-61
2021/01/31 08:46:13;;;;;;;11.60;5.32;;;0.50;99.90;;;;;;10238120;28;20106;-61
2021/01/31 08:51:18;;;;;;;10.73;5.15;;;0.60;99.90;;;;;;10216215;28;20062;-61
2021/01/31 08:56:23;;;;;;;12.10;6.38;;;0.60;99.90;;;;;;10222672;28;20086;-61
2021/01/31 09:01:25;;;;;;;14.90;5.63;;;0.70;99.90;;;;;;10223355;28;20106;-61
2021/01/31 09:06:26;;;;;;;11.77;6.05;;;0.80;99.90;;;;;;10240209;28;20124;-61
2021/01/31 09:11:27;;;;;;;13.77;5.65;;;1.00;99.90;;;;;;10221449;28;20133;-61
2021/01/31 09:16:28;;;;;;;10.80;4.88;;;1.00;99.90;;;;;;10225437;28;20047;-61
2021/01/31 09:21:33;;;;;;;12.88;5.72;;;1.10;99.90;;;;;;10213846;28;20055;-62
2021/01/31 09:26:34;;;;;;;10.68;5.55;;;1.10;99.90;;;;;;10219752;28;20046;-62
2021/01/31 09:31:38;;;;;;;13.82;5.43;;;1.00;99.90;;;;;;10232638;28;20048;-62
2021/01/31 09:36:39;;;;;;;10.30;5.30;;;1.10;99.90;;;;;;10215254;28;20138;-62
2021/01/31 09:41:40;;;;;;;10.95;5.63;;;1.10;99.90;;;;;;10221264;28;20050;-62
2021/01/31 09:46:43;;;;;;;8.82;4.45;;;1.30;99.90;;;;;;10227138;28;20114;-62
2021/01/31 09:51:46;;;;;;;11.27;4.72;;;1.50;99.90;;;;;;10221611;28;20082;-62
2021/01/31 09:56:54;;;;;;;9.05;4.63;;;1.50;99.90;;;;;;10225260;28;20433;-62
2021/01/31 10:02:09;;;;;;;13.90;6.20;;;1.70;99.90;;;;;;10221356;28;20430;-59
2021/01/31 10:07:13;;;;;;;10.85;5.45;;;1.60;99.90;;;;;;10210927;28;20522;-62
2021/01/31 10:12:22;;;;;;;13.48;5.25;;;1.50;99.90;;;;;;10218913;28;20047;-62
2021/01/31 10:17:44;;;;;;;11.02;5.88;;;1.70;99.90;;;;;;10223811;28;20526;-62
2021/01/31 10:22:46;;;;;;;14.05;6.75;;;1.70;99.90;;;;;;10221545;28;20055;-62
2021/01/31 10:27:48;;;;;;;12.52;6.30;;;1.80;99.90;;;;;;10223923;28;20542;-62
2021/01/31 10:32:50;;;;;;;12.93;5.32;;;2.10;99.90;;;;;;10204279;28;20078;-62
2021/01/31 10:37:52;;;;;;;13.80;6.53;;;2.20;99.90;;;;;;10221721;28;20058;-61
2021/01/31 10:42:53;;;;;;;13.15;6.22;;;2.30;99.90;;;;;;10224428;28;20470;-62
2021/01/31 10:47:54;;;;;;;11.25;5.78;;;2.30;99.90;;;;;;10218386;28;20047;-62
2021/01/31 10:52:55;;;;;;;14.75;6.60;;;2.40;99.90;;;;;;10219781;28;20074;-61
2021/01/31 10:57:57;;;;;;;13.00;6.30;;;2.50;99.90;;;;;;10223410;28;20109;-62
2021/01/31 11:02:58;;;;;;;14.00;6.85;;;2.50;99.90;;;;;;10210247;28;20047;-62
2021/01/31 11:07:59;;;;;;;16.25;6.53;;;2.40;99.90;;;;;;10220815;28;20050;-62
2021/01/31 11:13:01;;;;;;;11.32;5.82;;;2.40;99.90;;;;;;10186363;28;20047;-62
2021/01/31 11:18:02;;;;;;;11.55;5.75;;;2.60;99.90;;;;;;10190559;28;20063;-61
2021/01/31 11:23:04;;;;;;;12.52;6.30;;;2.60;99.90;;;;;;10186887;28;20055;-62
2021/01/31 11:28:05;;;;;;;14.27;6.38;;;2.70;99.90;;;;;;10173192;28;20437;-62
2021/01/31 11:33:07;;;;;;;14.35;7.38;;;2.70;99.90;;;;;;10161592;28;20051;-62
2021/01/31 11:38:08;;;;;;;13.55;7.05;;;2.60;99.90;;;;;;10152356;28;20047;-62
2021/01/31 11:43:09;;;;;;;12.48;6.35;;;2.70;99.90;;;;;;10180374;28;20542;-62
2021/01/31 11:48:11;;;;;;;13.15;5.78;;;2.80;99.90;;;;;;10162620;28;20056;-62
2021/01/31 11:53:13;;;;;;;11.63;5.28;;;2.80;99.90;;;;;;10169697;28;20049;-61
2021/01/31 11:58:16;;;;;;;11.35;5.88;;;2.90;99.90;;;;;;10182569;28;20058;-61
2021/01/31 12:03:17;;;;;;;12.95;6.55;;;3.00;99.90;;;;;;10180521;28;20039;-62
2021/01/31 12:08:18;;;;;;;15.32;8.35;;;3.10;99.90;;;;;;10179033;28;20545;-65
2021/01/31 12:13:19;;;;;;;14.00;6.78;;;3.10;99.90;;;;;;10198981;28;20818;-61
2021/01/31 12:18:20;;;;;;;13.48;6.95;;;2.90;99.90;;;;;;10223038;28;20050;-61
2021/01/31 12:23:22;;;;;;;14.13;6.63;;;3.10;99.90;;;;;;10228844;28;20169;-62
2021/01/31 12:28:23;;;;;;;15.52;6.75;;;3.20;99.90;;;;;;10222081;28;20044;-62
2021/01/31 12:33:24;;;;;;;12.20;6.95;;;3.10;99.90;;;;;;10230417;28;20932;-63
2021/01/31 12:38:26;;;;;;;11.48;5.93;;;3.10;99.90;;;;;;10232814;28;20051;-62
2021/01/31 12:43:28;;;;;;;11.80;6.45;;;3.10;99.90;;;;;;10249061;28;20050;-63
2021/01/31 12:48:29;;;;;;;14.25;7.18;;;3.10;99.90;;;;;;10237719;28;20109;-62
2021/01/31 12:53:30;;;;;;;11.73;6.00;;;3.10;99.90;;;;;;10225270;28;20098;-62
2021/01/31 12:58:32;;;;;;;12.75;6.10;;;3.20;99.90;;;;;;10226852;28;20074;-62
2021/01/31 13:03:33;;;;;;;13.57;6.32;;;3.30;99.90;;;;;;10226580;28;20093;-63
2021/01/31 13:08:34;;;;;;;13.68;6.15;;;3.40;99.90;;;;;;10233213;28;20059;-62
2021/01/31 13:13:35;;;;;;;13.55;6.40;;;3.50;99.90;;;;;;10223896;28;20063;-62
2021/01/31 13:18:36;;;;;;;14.32;7.20;;;3.50;99.90;;;;;;10227679;28;20437;-62
2021/01/31 13:23:38;;;;;;;12.77;6.05;;;3.40;99.90;;;;;;10227772;28;20050;-62
2021/01/31 13:28:39;;;;;;;11.93;6.60;;;3.40;99.90;;;;;;10237155;28;20138;-62
2021/01/31 13:33:40;;;;;;;12.77;6.18;;;3.30;99.90;;;;;;10239353;28;20058;-62
2021/01/31 13:38:41;;;;;;;11.80;5.90;;;3.30;99.90;;;;;;10238244;28;20609;-62
2021/01/31 13:43:43;;;;;;;13.00;6.25;;;3.40;99.90;;;;;;10230489;28;20050;-63
2021/01/31 13:48:44;;;;;;;10.52;5.25;;;3.20;99.90;;;;;;10236601;28;20070;-63
2021/01/31 13:53:45;;;;;;;10.68;5.40;;;3.10;99.90;;;;;;10234364;28;20067;-63
2021/01/31 13:58:46;;;;;;;10.00;5.18;;;3.00;99.90;;;;;;10232428;28;20055;-62
2021/01/31 14:03:47;;;;;;;10.55;5.68;;;2.80;99.90;;;;;;10230558;28;20109;-62
2021/01/31 14:08:48;;;;;;;12.82;6.68;;;2.80;99.90;;;;;;10241426;28;20047;-62
2021/01/31 14:13:49;;;;;;;16.10;6.15;;;2.70;99.90;;;;;;10226931;28;20043;-63
2021/01/31 14:18:51;;;;;;;15.50;6.03;;;2.70;99.90;;;;;;10222355;28;20375;-62
2021/01/31 14:23:52;;;;;;;16.02;7.20;;;2.70;99.90;;;;;;10229899;28;20075;-63
2021/01/31 14:28:53;;;;;;;11.98;6.05;;;2.60;99.90;;;;;;10233400;28;20046;-63
2021/01/31 14:33:55;;;;;;;14.05;7.15;;;2.60;99.90;;;;;;10233783;28;20051;-62
2021/01/31 14:38:58;;;;;;;12.65;6.45;;;2.50;99.90;;;;;;10238697;28;20584;-63
2021/01/31 14:43:59;;;;;;;13.38;6.05;;;2.50;99.90;;;;;;10232232;28;20058;-63
2021/01/31 14:49:00;;;;;;;11.88;6.32;;;2.50;99.90;;;;;;10236988;28;20125;-61
2021/01/31 14:54:01;;;;;;;16.90;7.80;;;2.50;99.90;;;;;;10225995;28;20043;-62
2021/01/31 14:59:02;;;;;;;13.05;6.68;;;2.50;99.90;;;;;;10227478;28;20051;-62
2021/01/31 15:04:04;;;;;;;14.95;7.68;;;2.50;99.90;;;;;;10235532;28;20050;-62
2021/01/31 15:09:05;;;;;;;13.25;6.80;;;2.50;99.90;;;;;;10237450;28;20448;-63
2021/01/31 15:14:06;;;;;;;13.18;6.90;;;2.50;99.90;;;;;;10221954;28;20125;-62
2021/01/31 15:19:09;;;;;;;13.93;7.78;;;2.50;99.90;;;;;;10216391;28;20473;-62
2021/01/31 15:24:10;;;;;;;15.77;7.88;;;2.50;99.90;;;;;;10217484;28;20058;-62
2021/01/31 15:29:11;;;;;;;15.00;6.78;;;2.50;99.90;;;;;;10219767;28;20062;-62
2021/01/31 15:34:13;;;;;;;15.23;8.05;;;2.40;99.90;;;;;;10216629;28;20419;-63
2021/01/31 15:39:14;;;;;;;15.38;7.80;;;2.40;99.90;;;;;;10219195;28;20051;-61
2021/01/31 15:44:15;;;;;;;17.23;8.27;;;2.40;99.90;;;;;;10210029;28;20047;-63
2021/01/31 15:49:16;;;;;;;17.90;8.40;;;2.40;99.90;;;;;;10215203;28;20047;-62
2021/01/31 15:54:17;;;;;;;15.75;7.43;;;2.40;99.90;;;;;;10202535;28;20426;-62
2021/01/31 15:59:19;;;;;;;17.58;7.85;;;2.30;99.90;;;;;;10209395;28;22645;-63
2021/01/31 16:04:20;;;;;;;15.93;8.15;;;2.30;99.90;;;;;;10208229;28;20520;-67
2021/01/31 16:09:21;;;;;;;15.25;7.53;;;2.30;99.90;;;;;;10210326;28;20682;-68
2021/01/31 16:14:22;;;;;;;20.25;9.60;;;2.30;99.90;;;;;;10209036;28;20066;-68
2021/01/31 16:19:23;;;;;;;16.13;7.78;;;2.30;99.90;;;;;;10210142;28;20051;-68
2021/01/31 16:24:25;;;;;;;17.83;8.95;;;2.30;99.90;;;;;;10212778;28;20051;-69
2021/01/31 16:29:27;;;;;;;16.67;8.18;;;2.30;99.90;;;;;;10215310;28;20066;-68
2021/01/31 16:34:28;;;;;;;16.98;9.48;;;2.30;99.90;;;;;;10204386;28;20118;-69
2021/01/31 16:39:36;;;;;;;15.80;7.80;;;2.30;99.90;;;;;;10211133;28;20055;-69
2021/01/31 16:44:37;;;;;;;18.20;7.88;;;2.30;99.90;;;;;;10212723;28;20051;-68
2021/01/31 16:49:38;;;;;;;16.00;7.85;;;2.30;99.90;;;;;;10210977;28;20086;-68
2021/01/31 16:54:39;;;;;;;19.40;8.68;;;2.30;99.90;;;;;;10209512;28;20055;-67
2021/01/31 16:59:41;;;;;;;16.38;8.70;;;2.30;99.90;;;;;;10216712;28;20084;-67
2021/01/31 17:04:42;;;;;;;20.15;9.73;;;2.30;99.90;;;;;;10214864;28;20064;-68
2021/01/31 17:09:44;;;;;;;17.70;9.13;;;2.20;99.90;;;;;;10215667;28;20137;-68
2021/01/31 17:14:45;;;;;;;16.52;8.40;;;2.20;99.90;;;;;;10219880;28;20434;-68
2021/01/31 17:19:46;;;;;;;17.60;9.02;;;2.30;99.90;;;;;;10191122;28;20051;-68
2021/01/31 17:24:47;;;;;;;18.67;9.60;;;2.30;99.90;;;;;;10193263;28;20125;-68
2021/01/31 17:29:48;;;;;;;19.45;10.00;;;2.30;99.90;;;;;;10220645;28;20058;-67
2021/01/31 17:34:50;;;;;;;24.98;10.48;;;2.30;99.90;;;;;;10216097;28;20047;-68
2021/01/31 17:39:51;;;;;;;22.33;10.52;;;2.30;99.90;;;;;;10198947;28;20079;-68
2021/01/31 17:44:52;;;;;;;19.45;9.82;;;2.30;99.90;;;;;;10224138;28;20059;-68
2021/01/31 17:49:53;;;;;;;18.38;8.68;;;2.30;99.90;;;;;;10213452;28;20047;-68
2021/01/31 17:54:54;;;;;;;17.80;8.82;;;2.30;99.90;;;;;;10210224;28;20119;-65
2021/01/31 17:59:56;;;;;;;17.15;8.48;;;2.20;99.90;;;;;;10213896;28;20133;-69
2021/01/31 18:04:57;;;;;;;22.15;9.90;;;2.20;99.90;;;;;;10215608;28;20111;-69
2021/01/31 18:09:58;;;;;;;19.05;9.88;;;2.20;99.90;;;;;;10217064;28;20055;-68
2021/01/31 18:14:59;;;;;;;22.48;10.63;;;2.10;99.90;;;;;;10176383;28;20055;-66
2021/01/31 18:20:01;;;;;;;23.02;10.43;;;2.20;99.90;;;;;;10181477;28;20141;-68
2021/01/31 18:25:05;;;;;;;22.13;9.82;;;2.10;99.90;;;;;;10175744;28;20115;-67
2021/01/31 18:30:11;;;;;;;23.70;10.32;;;2.10;99.90;;;;;;10161216;28;20118;-67
2021/01/31 18:35:13;;;;;;;18.33;9.73;;;2.10;99.90;;;;;;10179048;28;20111;-67
2021/01/31 18:40:16;;;;;;;21.65;10.40;;;2.10;99.90;;;;;;10178534;28;20383;-63
2021/01/31 18:45:19;;;;;;;22.17;9.63;;;2.10;99.90;;;;;;10179391;28;20066;-65
2021/01/31 18:50:24;;;;;;;20.33;10.10;;;2.10;99.90;;;;;;10177985;28;20403;-65
2021/01/31 18:55:25;;;;;;;18.67;9.00;;;2.00;99.90;;;;;;10141608;29;20059;-63
2021/01/31 19:00:31;;;;;;;20.52;9.80;;;1.80;99.90;;;;;;10157716;28;20633;-63
2021/01/31 19:05:33;;;;;;;21.45;10.48;;;1.60;99.90;;;;;;10160998;28;20062;-67
2021/01/31 19:10:36;;;;;;;22.55;10.45;;;1.50;99.90;;;;;;10169735;28;20530;-63
2021/01/31 19:15:37;;;;;;;23.38;10.20;;;1.50;99.90;;;;;;10173383;28;20059;-65
2021/01/31 19:20:38;;;;;;;24.60;11.15;;;1.40;99.90;;;;;;10175301;28;20070;-66
2021/01/31 19:25:40;;;;;;;26.33;12.10;;;1.40;99.90;;;;;;10173264;28;20063;-65
2021/01/31 19:30:41;;;;;;;26.88;11.48;;;1.40;99.90;;;;;;10172740;28;20055;-65
2021/01/31 19:35:46;;;;;;;28.65;12.30;;;1.40;99.90;;;;;;10176039;28;20138;-65
2021/01/31 19:40:48;;;;;;;23.45;10.60;;;1.40;99.90;;;;;;10174720;28;20055;-65
2021/01/31 19:45:49;;;;;;;22.30;10.10;;;1.40;99.90;;;;;;10176857;28;20056;-65
2021/01/31 19:50:51;;;;;;;21.77;9.75;;;1.40;99.90;;;;;;10174019;28;20064;-65
2021/01/31 19:55:52;;;;;;;24.00;10.60;;;1.40;99.90;;;;;;10180911;28;20115;-65
2021/01/31 20:00:53;;;;;;;23.77;10.90;;;1.40;99.90;;;;;;10173648;28;20048;-66
2021/01/31 20:05:55;;;;;;;26.55;11.43;;;1.40;99.90;;;;;;10184044;28;20052;-67
2021/01/31 20:10:56;;;;;;;24.77;11.35;;;1.40;99.90;;;;;;10186712;28;20062;-67
2021/01/31 20:15:57;;;;;;;26.25;12.50;;;1.40;99.90;;;;;;10230923;28;20051;-65
2021/01/31 20:20:58;;;;;;;25.88;10.82;;;1.50;99.90;;;;;;10223632;28;20063;-66
2021/01/31 20:25:59;;;;;;;27.10;11.50;;;1.50;99.90;;;;;;10220670;28;20145;-65
2021/01/31 20:31:01;;;;;;;25.33;11.32;;;1.50;99.90;;;;;;10224782;28;20054;-66
2021/01/31 20:36:05;;;;;;;24.08;10.60;;;1.50;99.90;;;;;;10222386;28;20071;-66
2021/01/31 20:41:06;;;;;;;28.30;12.38;;;1.50;99.90;;;;;;10241834;28;20043;-65
2021/01/31 20:46:08;;;;;;;24.17;11.50;;;1.50;99.90;;;;;;10229800;28;20559;-66
2021/01/31 20:51:10;;;;;;;25.13;11.27;;;1.50;99.90;;;;;;10231593;28;20047;-65
2021/01/31 20:56:12;;;;;;;24.63;11.77;;;1.50;99.90;;;;;;10242298;28;20055;-66
2021/01/31 21:01:14;;;;;;;25.38;11.43;;;1.50;99.90;;;;;;10234886;28;20142;-65
2021/01/31 21:06:15;;;;;;;25.67;11.88;;;1.50;99.90;;;;;;10227310;28;20043;-63
2021/01/31 21:11:16;;;;;;;26.23;11.07;;;1.50;99.90;;;;;;10241826;28;20433;-63
2021/01/31 21:16:17;;;;;;;25.63;11.88;;;1.60;99.90;;;;;;10190436;28;20635;-63
2021/01/31 21:21:21;;;;;;;26.27;11.32;;;1.50;99.90;;;;;;10206227;28;20051;-63
2021/01/31 21:26:23;;;;;;;29.35;12.80;;;1.60;99.90;;;;;;10185175;28;20062;-65
2021/01/31 21:31:24;;;;;;;26.95;12.13;;;1.60;99.90;;;;;;10200691;28;20466;-63
2021/01/31 21:36:25;;;;;;;25.83;12.10;;;1.60;99.90;;;;;;10201080;28;20048;-63
2021/01/31 21:41:26;;;;;;;28.23;11.73;;;1.60;99.90;;;;;;10198675;28;20043;-63
2021/01/31 21:46:28;;;;;;;29.75;13.15;;;1.60;99.90;;;;;;10203439;28;20059;-63
2021/01/31 21:51:29;;;;;;;29.50;12.35;;;1.60;99.90;;;;;;10201086;28;20058;-64
2021/01/31 21:56:30;;;;;;;31.73;12.68;;;1.50;99.90;;;;;;10195120;28;20281;-64
2021/01/31 22:01:33;;;;;;;31.15;13.18;;;1.50;99.90;;;;;;10198505;28;20427;-63
2021/01/31 22:06:34;;;;;;;32.20;13.80;;;1.50;99.90;;;;;;10198547;28;20055;-63
2021/01/31 22:11:36;;;;;;;29.23;13.57;;;1.50;99.90;;;;;;10197994;28;20047;-64
2021/01/31 22:16:37;;;;;;;31.35;13.18;;;1.50;99.90;;;;;;10197155;28;20049;-64
2021/01/31 22:21:38;;;;;;;27.80;11.70;;;1.50;99.90;;;;;;10181971;28;20454;-64
2021/01/31 22:26:40;;;;;;;31.77;14.05;;;1.50;99.90;;;;;;10193441;28;20055;-63
2021/01/31 22:31:41;;;;;;;28.13;12.50;;;1.50;99.90;;;;;;10200261;28;20043;-63
2021/01/31 22:36:42;;;;;;;28.27;11.93;;;1.50;99.90;;;;;;10191930;28;20436;-64
2021/01/31 22:41:44;;;;;;;28.83;12.57;;;1.60;99.90;;;;;;10198137;28;20086;-63
2021/01/31 22:46:45;;;;;;;24.08;11.25;;;1.60;99.90;;;;;;10190810;28;20110;-64
2021/01/31 22:51:46;;;;;;;27.08;12.23;;;1.60;99.90;;;;;;10205384;28;20444;-63
2021/01/31 22:56:49;;;;;;;28.25;13.75;;;1.60;99.90;;;;;;10188091;28;20054;-64
2021/01/31 23:01:50;;;;;;;27.17;10.73;;;1.60;99.90;;;;;;10201055;28;20062;-64
2021/01/31 23:06:51;;;;;;;24.73;11.00;;;1.60;99.90;;;;;;10159905;28;20048;-64
2021/01/31 23:11:53;;;;;;;29.15;12.45;;;1.60;99.90;;;;;;10210212;28;20682;-64
2021/01/31 23:16:54;;;;;;;26.00;11.38;;;1.60;99.90;;;;;;10193666;28;20059;-64
2021/01/31 23:21:55;;;;;;;29.20;13.07;;;1.60;99.90;;;;;;10226216;28;20044;-64
2021/01/31 23:26:57;;;;;;;28.00;12.27;;;1.70;99.90;;;;;;10211870;28;20051;-64
2021/01/31 23:31:58;;;;;;;22.38;11.00;;;1.70;99.90;;;;;;10216442;28;20047;-64
2021/01/31 23:36:59;;;;;;;25.25;11.20;;;1.70;99.90;;;;;;10214793;28;20106;-63
2021/01/31 23:42:00;;;;;;;25.20;11.63;;;1.70;99.90;;;;;;10212991;28;20628;-64
2021/01/31 23:47:02;;;;;;;27.45;12.73;;;1.70;99.90;;;;;;10199840;28;20138;-64
2021/01/31 23:52:03;;;;;;;27.77;12.00;;;1.70;99.90;;;;;;10211292;28;20054;-64
2021/01/31 23:57:05;;;;;;;27.73;12.20;;;1.70;99.90;;;;;;10205166;28;20062;-64
